Time;durP1;ratioP1;P1;durP2;ratioP2;P2;SDS_P1;SDS_P2;PMS_P1;PMS_P2;Temp;Humidity;BMP_temperature;BMP_pressure;BME280_temperature;BME280_humidity;BME280_pressure;Samples;Min_cycle;Max_cycle;Signal;HPM_P1;HPM_P2
2022/05/11 00:00:00;;;;;;;6.07;2.60;;;22.80;42.10;;;17.07;58.88;101126.38;173970;28;882;-71
2022/05/11 00:00:12;;;;;;;5.53;2.60;;;22.80;42.10;;;17.04;58.79;101123.91;174056;28;922;-71
2022/05/11 00:00:18;;;;;;;5.13;2.69;;;22.80;42.00;;;17.02;58.81;101125.78;173947;28;1237;-71
2022/05/11 00:00:24;;;;;;;5.15;2.70;;;22.80;42.10;;;17.01;58.77;101124.09;173940;28;776;-71
2022/05/11 00:00:30;;;;;;;5.35;2.80;;;22.80;42.10;;;16.91;58.64;101119.44;174010;28;903;-71
2022/05/11 00:00:36;;;;;;;4.78;2.75;;;22.80;42.00;;;16.85;59.25;101119.81;174513;28;938;-72
2022/05/11 00:00:43;;;;;;;4.90;2.78;;;22.80;42.00;;;16.86;59.58;101124.16;174680;28;958;-71
2022/05/11 00:00:49;;;;;;;4.40;2.70;;;22.80;42.00;;;16.85;59.35;101122.47;174601;28;910;-72
2022/05/11 00:00:55;;;;;;;4.78;2.80;;;22.80;42.00;;;16.85;59.12;101125.09;174610;28;1101;-72
2022/05/11 00:01:02;;;;;;;3.92;2.70;;;22.80;42.00;;;16.85;59.49;101125.09;174689;28;784;-71
2022/05/11 00:01:13;;;;;;;5.08;2.88;;;22.80;42.00;;;16.81;59.91;101124.47;174680;28;1113;-71
2022/05/11 00:01:19;;;;;;;5.48;2.80;;;22.80;42.00;;;16.76;59.95;101123.06;174616;28;1221;-72
2022/05/11 00:01:26;;;;;;;6.28;2.80;;;22.80;42.00;;;16.73;59.79;101117.03;174678;28;914;-72
2022/05/11 00:01:35;;;;;;;7.24;2.86;;;22.80;42.00;;;16.77;59.79;101120.34;174685;28;926;-71
2022/05/11 00:01:41;;;;;;;5.84;2.70;;;22.80;42.00;;;16.82;59.87;101126.16;174661;28;1042;-72
2022/05/11 00:01:49;;;;;;;5.82;2.85;;;22.80;42.00;;;16.88;59.15;101122.28;174676;28;1076;-71
2022/05/11 00:01:55;;;;;;;5.18;2.90;;;22.70;42.00;;;16.85;59.17;101120.69;174689;28;1011;-72
2022/05/11 00:02:00;;;;;;;4.38;2.83;;;22.80;42.00;;;16.87;59.45;101120.59;174679;28;929;-71
2022/05/11 00:02:06;;;;;;;5.37;2.90;;;22.70;42.00;;;16.83;59.61;101119.06;174711;28;1025;-71
2022/05/11 00:02:12;;;;;;;5.80;2.80;;;22.70;42.00;;;16.84;59.46;101120.78;174695;28;823;-71
2022/05/11 00:02:18;;;;;;;5.57;2.80;;;22.80;42.00;;;16.87;59.36;101117.94;174687;28;981;-71
2022/05/11 00:02:23;;;;;;;5.85;2.90;;;22.80;42.00;;;16.90;59.45;101120.38;174677;28;970;-72
2022/05/11 00:02:29;;;;;;;5.93;2.90;;;22.80;42.00;;;16.92;59.08;101123.75;174561;28;715;-71
2022/05/11 00:02:37;;;;;;;5.53;2.90;;;22.80;42.00;;;16.97;59.13;101118.19;173505;28;934;-72
2022/05/11 00:02:43;;;;;;;5.95;3.02;;;22.80;42.00;;;17.00;58.65;101117.97;173260;28;1056;-71
2022/05/11 00:02:48;;;;;;;6.60;2.95;;;22.70;42.00;;;17.02;58.82;101118.72;173296;28;1121;-72
2022/05/11 00:02:54;;;;;;;6.20;2.87;;;22.70;42.00;;;17.04;58.58;101119.47;173688;28;1120;-71
2022/05/11 00:03:00;;;;;;;6.32;2.80;;;22.70;42.00;;;17.07;58.86;101118.47;173981;28;930;-71
2022/05/11 00:03:06;;;;;;;6.13;2.80;;;22.70;42.00;;;17.09;58.80;101124.47;174026;28;847;-71
2022/05/11 00:03:12;;;;;;;5.57;2.70;;;22.80;42.00;;;17.12;58.73;101126.91;174024;28;910;-71
2022/05/11 00:03:18;;;;;;;4.95;2.78;;;22.80;42.00;;;17.12;58.59;101121.63;173982;28;1097;-71
2022/05/11 00:03:24;;;;;;;5.20;2.72;;;22.80;42.10;;;17.13;58.46;101117.22;174014;28;882;-71
2022/05/11 00:03:30;;;;;;;5.50;2.70;;;22.70;42.10;;;17.11;58.70;101120.78;173984;28;938;-71
2022/05/11 00:03:36;;;;;;;5.47;2.73;;;22.70;42.10;;;17.13;58.70;101123.31;173005;28;962;-71
2022/05/11 00:03:42;;;;;;;4.78;2.70;;;22.80;42.10;;;17.15;58.59;101121.44;173293;28;927;-71
2022/05/11 00:03:47;;;;;;;4.97;2.80;;;22.70;42.10;;;17.14;59.15;101124.19;173268;28;1093;-71
2022/05/11 00:03:53;;;;;;;4.90;2.87;;;22.80;42.10;;;17.11;59.04;101122.59;173290;28;911;-71
2022/05/11 00:04:03;;;;;;;4.85;3.00;;;22.70;42.10;;;17.12;58.83;101119.00;173276;28;1093;-71
2022/05/11 00:04:10;;;;;;;4.32;3.00;;;22.70;42.20;;;16.99;59.12;101119.78;173268;28;1132;-72
2022/05/11 00:04:18;;;;;;;4.66;2.90;;;22.80;42.20;;;16.97;59.31;101119.03;173269;28;974;-71
2022/05/11 00:04:24;;;;;;;4.73;2.80;;;22.70;42.20;;;16.95;59.63;101120.94;173247;28;1117;-71
2022/05/11 00:04:30;;;;;;;4.20;2.70;;;22.80;42.20;;;16.91;59.18;101119.44;173185;28;1567;-71
2022/05/11 00:04:38;;;;;;;4.50;2.70;;;22.80;42.20;;;16.87;59.53;101115.31;173745;28;797;-72
2022/05/11 00:04:44;;;;;;;4.22;2.57;;;22.70;42.20;;;16.84;59.83;101123.41;173933;28;967;-71
2022/05/11 00:04:49;;;;;;;5.05;2.50;;;22.70;42.20;;;16.89;59.86;101112.56;173996;28;1046;-72
2022/05/11 00:04:55;;;;;;;5.47;2.57;;;22.80;42.20;;;16.90;59.51;101116.91;174015;28;1021;-71
2022/05/11 00:05:01;;;;;;;5.70;2.60;;;22.70;42.20;;;16.92;59.46;101121.13;173998;28;1053;-71
2022/05/11 00:05:12;;;;;;;5.47;2.63;;;22.70;42.20;;;16.93;58.99;101117.53;174032;28;1121;-71
2022/05/11 00:05:18;;;;;;;5.86;2.81;;;22.80;42.20;;;16.97;59.06;101119.03;173927;28;1218;-71
2022/05/11 00:05:24;;;;;;;5.22;2.90;;;22.80;42.20;;;17.01;58.87;101124.09;173975;28;978;-71
2022/05/11 00:05:30;;;;;;;6.75;2.97;;;22.70;42.10;;;16.97;59.33;101123.47;173968;28;1101;-71
2022/05/11 00:05:37;;;;;;;7.07;3.00;;;22.70;42.10;;;16.96;59.13;101117.34;174226;28;899;-71
2022/05/11 00:05:43;;;;;;;7.40;3.00;;;22.70;42.10;;;16.99;59.21;101117.16;174659;28;1224;-72
2022/05/11 00:05:49;;;;;;;6.53;2.95;;;22.70;42.10;;;16.99;59.27;101122.41;174670;28;1104;-73
2022/05/11 00:05:55;;;;;;;8.98;3.10;;;22.70;42.10;;;17.03;59.45;101124.81;174686;28;997;-71
2022/05/11 00:06:01;;;;;;;8.02;3.05;;;22.70;42.10;;;17.06;58.92;101122.03;174696;28;787;-71
2022/05/11 00:06:07;;;;;;;7.75;3.03;;;22.70;42.10;;;17.07;59.08;101121.09;174723;28;827;-72
2022/05/11 00:06:13;;;;;;;7.34;2.98;;;22.80;42.20;;;17.08;59.24;101115.69;174645;28;997;-71
2022/05/11 00:06:19;;;;;;;7.07;2.90;;;22.80;42.20;;;17.11;58.74;101125.22;174681;28;954;-71
2022/05/11 00:06:27;;;;;;;4.83;2.80;;;22.70;42.20;;;17.14;58.64;101124.19;174674;28;958;-71
2022/05/11 00:06:35;;;;;;;5.03;2.70;;;22.70;42.20;;;17.14;58.80;101119.72;174033;28;963;-72
2022/05/11 00:06:42;;;;;;;5.40;2.75;;;22.70;42.20;;;17.16;58.88;101120.50;173958;28;960;-72
2022/05/11 00:06:49;;;;;;;5.63;2.72;;;22.70;42.20;;;17.17;58.88;101119.53;174002;28;1101;-72
2022/05/11 00:06:55;;;;;;;5.62;2.72;;;22.70;42.30;;;17.17;59.19;101122.16;174017;28;934;-71
2022/05/11 00:07:00;;;;;;;5.97;2.83;;;22.70;42.30;;;17.17;58.73;101119.53;174003;28;871;-72
2022/05/11 00:07:06;;;;;;;5.70;2.85;;;22.70;42.30;;;17.18;59.06;101121.22;173905;28;934;-71
2022/05/11 00:07:12;;;;;;;6.17;2.83;;;22.70;42.30;;;17.18;58.60;101120.38;173999;28;824;-71
2022/05/11 00:07:18;;;;;;;5.55;2.90;;;22.80;42.30;;;17.19;58.58;101122.06;173970;28;1113;-72
2022/05/11 00:07:24;;;;;;;5.25;2.90;;;22.70;42.20;;;17.19;58.81;101119.44;173943;28;1001;-71
2022/05/11 00:07:30;;;;;;;4.70;2.86;;;22.70;42.20;;;17.18;58.62;101126.50;173976;28;989;-72
2022/05/11 00:07:36;;;;;;;4.87;2.90;;;22.80;42.20;;;17.12;58.64;101121.63;173746;28;898;-72
2022/05/11 00:07:42;;;;;;;5.03;2.90;;;22.70;42.20;;;17.13;58.74;101122.50;173897;28;1065;-71
2022/05/11 00:07:48;;;;;;;5.38;2.85;;;22.80;42.20;;;17.10;58.53;101126.16;173958;28;954;-72
2022/05/11 00:07:54;;;;;;;5.70;2.90;;;22.70;42.20;;;17.05;58.88;101122.94;173981;28;910;-72
2022/05/11 00:08:03;;;;;;;5.86;2.90;;;22.70;42.20;;;17.00;59.16;101123.25;173964;28;950;-72
2022/05/11 00:08:09;;;;;;;5.27;2.90;;;22.70;42.20;;;17.03;58.83;101122.19;174037;28;828;-72
2022/05/11 00:08:14;;;;;;;5.47;2.92;;;22.70;42.10;;;17.05;58.93;101118.56;174011;28;954;-71
2022/05/11 00:08:20;;;;;;;5.88;2.90;;;22.70;42.20;;;17.03;59.28;101123.03;174013;28;923;-71
2022/05/11 00:08:26;;;;;;;6.00;3.00;;;22.80;42.20;;;17.00;59.01;101120.59;173974;28;965;-72
2022/05/11 00:08:31;;;;;;;6.60;2.92;;;22.70;42.10;;;17.03;59.00;101122.19;173984;28;941;-72
2022/05/11 00:08:37;;;;;;;6.18;2.92;;;22.80;42.20;;;16.99;59.15;101122.41;173754;28;955;-71
2022/05/11 00:08:43;;;;;;;5.75;2.90;;;22.70;42.20;;;16.99;59.50;101125.06;173928;28;1029;-71
2022/05/11 00:08:49;;;;;;;5.70;2.97;;;22.70;42.10;;;16.94;59.39;101123.66;173932;28;922;-71
2022/05/11 00:08:57;;;;;;;4.82;2.90;;;22.80;42.20;;;16.94;59.21;101118.38;173960;28;930;-71
2022/05/11 00:09:08;;;;;;;3.93;2.90;;;22.70;42.20;;;16.90;59.21;101120.38;174005;28;1069;-72
2022/05/11 00:09:14;;;;;;;3.86;2.76;;;22.70;42.20;;;16.84;59.15;101118.97;174624;28;1239;-71
2022/05/11 00:09:20;;;;;;;4.10;2.90;;;22.80;42.10;;;16.87;59.79;101117.94;174564;28;1906;-72
2022/05/11 00:09:25;;;;;;;4.13;2.90;;;22.70;42.10;;;16.91;59.17;101123.84;174636;28;1041;-71
2022/05/11 00:09:31;;;;;;;5.05;2.95;;;22.70;42.10;;;16.94;59.45;101118.38;174644;28;1104;-72
2022/05/11 00:09:37;;;;;;;6.43;3.00;;;22.70;42.10;;;16.96;59.22;101117.34;174420;28;945;-71
2022/05/11 00:09:42;;;;;;;6.55;3.00;;;22.70;42.10;;;16.99;58.87;101117.16;174577;28;1257;-71
2022/05/11 00:09:48;;;;;;;6.63;2.90;;;22.70;42.10;;;17.03;59.08;101124.81;174673;28;1037;-72
2022/05/11 00:09:53;;;;;;;6.90;2.90;;;22.70;42.10;;;17.04;59.11;101121.28;174680;28;945;-72
2022/05/11 00:10:00;;;;;;;6.40;2.83;;;22.70;42.20;;;17.06;58.96;101116.75;174689;28;934;-71
2022/05/11 00:10:13;;;;;;;6.03;2.83;;;22.70;42.20;;;17.09;59.23;101119.19;173935;28;1068;-72
2022/05/11 00:10:20;;;;;;;6.86;2.90;;;22.70;42.20;;;17.11;58.86;101119.97;173968;28;1179;-72
2022/05/11 00:10:26;;;;;;;8.00;2.90;;;22.70;42.20;;;17.13;59.01;101118.03;173993;28;977;-71
2022/05/11 00:10:35;;;;;;;7.47;2.80;;;22.70;42.20;;;17.14;58.78;101119.72;173865;28;1527;-71
2022/05/11 00:10:41;;;;;;;8.27;2.80;;;22.70;42.30;;;17.10;58.92;101120.88;173916;28;850;-71
2022/05/11 00:10:47;;;;;;;7.80;2.98;;;22.70;42.30;;;17.08;58.73;101126.25;173940;28;1009;-72
2022/05/11 00:10:53;;;;;;;7.28;3.00;;;22.70;42.30;;;17.07;59.10;101116.66;173966;28;922;-72
2022/05/11 00:10:59;;;;;;;7.43;3.07;;;22.70;42.30;;;17.04;58.88;101116.00;173954;28;843;-72
2022/05/11 00:11:05;;;;;;;8.55;3.05;;;22.70;42.20;;;17.05;59.12;101118.56;174044;28;931;-72
2022/05/11 00:11:11;;;;;;;6.20;2.90;;;22.70;42.20;;;17.07;59.12;101118.47;173963;28;1005;-71
2022/05/11 00:11:17;;;;;;;5.77;2.83;;;22.70;42.20;;;17.06;59.00;101122.03;173921;28;1237;-72
2022/05/11 00:11:27;;;;;;;5.90;2.80;;;22.70;42.20;;;17.07;59.00;101121.09;173970;28;1119;-71
2022/05/11 00:11:35;;;;;;;5.66;2.83;;;22.70;42.20;;;17.10;58.98;101120.88;173950;28;1128;-71
2022/05/11 00:11:42;;;;;;;5.60;2.90;;;22.70;42.30;;;17.12;58.93;101121.63;173856;28;907;-71
2022/05/11 00:11:48;;;;;;;5.85;2.92;;;22.70;42.20;;;17.13;58.54;101123.31;173985;28;960;-72
2022/05/11 00:11:53;;;;;;;5.90;2.90;;;22.70;42.30;;;17.14;59.12;101121.53;173981;28;1021;-71
2022/05/11 00:11:59;;;;;;;5.50;2.97;;;22.70;42.30;;;17.15;58.81;101128.50;173962;28;846;-72
2022/05/11 00:12:07;;;;;;;5.60;3.00;;;22.70;42.30;;;17.17;58.73;101123.97;174409;28;915;-72
2022/05/11 00:12:13;;;;;;;5.78;2.98;;;22.70;42.30;;;17.17;58.92;101122.16;174677;28;1013;-71
2022/05/11 00:12:19;;;;;;;5.68;2.92;;;22.80;42.30;;;17.18;58.67;101121.22;174682;28;835;-71
2022/05/11 00:12:25;;;;;;;5.53;2.83;;;22.70;42.30;;;17.18;58.83;101115.94;174689;28;878;-71
2022/05/11 00:12:30;;;;;;;5.50;2.73;;;22.70;42.30;;;17.17;59.00;101123.97;174689;28;1163;-72
2022/05/11 00:12:39;;;;;;;5.40;2.70;;;22.70;42.30;;;17.16;58.76;101120.50;174432;28;1017;-72
2022/05/11 00:12:47;;;;;;;7.10;2.87;;;22.70;42.30;;;17.16;58.91;101125.75;174679;28;970;-71
2022/05/11 00:12:53;;;;;;;7.70;2.92;;;22.70;42.30;;;17.15;59.01;101123.22;174584;28;1001;-72
2022/05/11 00:12:58;;;;;;;7.57;3.00;;;22.70;42.30;;;17.10;58.87;101124.38;174698;28;847;-71
2022/05/11 00:13:06;;;;;;;10.38;3.05;;;22.70;42.30;;;17.07;59.34;101121.94;174710;28;914;-71
2022/05/11 00:13:12;;;;;;;9.78;3.00;;;22.70;42.30;;;17.10;58.97;101118.25;174638;28;906;-71
2022/05/11 00:13:17;;;;;;;8.38;2.95;;;22.70;42.30;;;17.05;59.45;101122.94;175285;28;1100;-72
2022/05/11 00:13:23;;;;;;;9.93;2.92;;;22.70;42.30;;;16.97;59.36;101121.66;175239;28;931;-72
2022/05/11 00:13:29;;;;;;;10.20;2.90;;;22.70;42.40;;;16.96;59.25;101117.34;174329;28;1045;-72
2022/05/11 00:13:35;;;;;;;7.43;2.90;;;22.70;42.40;;;16.99;59.25;101119.78;174549;28;1482;-72
2022/05/11 00:13:41;;;;;;;8.06;2.90;;;22.80;42.40;;;17.03;59.12;101122.19;175346;28;1012;-71
2022/05/11 00:13:48;;;;;;;8.13;2.90;;;22.70;42.40;;;17.05;58.94;101120.31;175387;28;950;-71
2022/05/11 00:13:56;;;;;;;6.10;2.85;;;22.70;42.30;;;17.07;59.05;101123.75;175252;28;1104;-71
2022/05/11 00:14:05;;;;;;;5.81;2.80;;;22.80;42.40;;;17.09;58.98;101122.69;175302;28;1036;-71
2022/05/11 00:14:14;;;;;;;4.69;2.74;;;22.70;42.40;;;17.08;59.40;101115.69;175356;28;1064;-71
2022/05/11 00:14:19;;;;;;;3.93;2.69;;;22.70;42.40;;;17.07;59.13;101118.47;175339;28;1155;-72
2022/05/11 00:14:25;;;;;;;4.33;2.77;;;22.70;42.40;;;17.06;59.17;101116.75;175376;28;898;-71
2022/05/11 00:14:31;;;;;;;4.53;2.80;;;22.70;42.40;;;16.97;59.23;101113.75;175364;28;1056;-71
2022/05/11 00:14:36;;;;;;;4.78;2.90;;;22.70;42.40;;;16.92;59.23;101118.47;175124;28;1053;-72
2022/05/11 00:14:42;;;;;;;5.13;2.90;;;22.70;42.40;;;16.88;59.83;101119.63;175324;28;1115;-72
2022/05/11 00:14:48;;;;;;;4.88;2.88;;;22.70;42.30;;;16.88;59.91;101117.00;175344;28;1100;-72
2022/05/11 00:14:54;;;;;;;4.45;2.80;;;22.70;42.40;;;16.87;59.55;101117.94;175344;28;1049;-71
2022/05/11 00:14:59;;;;;;;4.30;2.83;;;22.70;42.40;;;16.82;59.80;101114.75;175341;28;1115;-71
2022/05/11 00:15:07;;;;;;;4.60;2.80;;;22.70;42.40;;;16.78;59.61;101118.53;175392;28;973;-72
2022/05/11 00:15:22;;;;;;;4.72;2.78;;;22.70;42.30;;;16.82;59.81;101114.75;175334;28;1097;-72
2022/05/11 00:15:29;;;;;;;5.40;2.80;;;22.70;42.30;;;16.86;59.49;101118.88;174653;28;1324;-72
2022/05/11 00:15:36;;;;;;;5.13;2.77;;;22.70;42.30;;;16.90;59.86;101120.38;174192;28;993;-71
2022/05/11 00:15:42;;;;;;;5.18;2.78;;;22.70;42.30;;;16.93;59.57;101117.53;174026;28;877;-71
2022/05/11 00:15:47;;;;;;;5.17;2.80;;;22.70;42.30;;;16.96;59.34;101112.06;174036;28;1037;-71
2022/05/11 00:15:53;;;;;;;5.63;2.90;;;22.70;42.30;;;16.97;59.44;101112.94;174014;28;1124;-71
2022/05/11 00:15:59;;;;;;;7.45;2.97;;;22.70;42.30;;;16.94;59.19;101113.94;174020;28;1175;-71
2022/05/11 00:16:05;;;;;;;7.40;3.03;;;22.70;42.30;;;16.85;59.33;101114.56;174037;28;938;-72
2022/05/11 00:16:12;;;;;;;8.00;3.10;;;22.70;42.30;;;16.84;59.29;101112.88;174012;28;939;-71
2022/05/11 00:16:18;;;;;;;7.28;3.20;;;22.70;42.30;;;16.83;59.16;101112.00;173882;28;1154;-72
2022/05/11 00:16:26;;;;;;;6.77;3.20;;;22.70;42.20;;;16.84;59.24;101118.13;174000;28;1002;-71
2022/05/11 00:16:35;;;;;;;5.03;3.00;;;22.70;42.20;;;16.88;59.62;101118.78;173961;28;1168;-71
2022/05/11 00:16:41;;;;;;;5.34;3.00;;;22.70;42.20;;;16.92;59.32;101115.84;173768;28;1511;-72
2022/05/11 00:16:47;;;;;;;6.00;2.83;;;22.70;42.20;;;16.85;59.49;101109.28;174002;28;797;-72
2022/05/11 00:16:52;;;;;;;6.40;2.65;;;22.70;42.20;;;16.82;59.84;101114.75;173960;28;863;-71
2022/05/11 00:16:59;;;;;;;6.30;2.63;;;22.70;42.20;;;16.81;60.04;101113.06;173964;28;815;-71
2022/05/11 00:17:05;;;;;;;6.67;2.67;;;22.70;42.20;;;16.85;59.63;101119.81;173971;28;922;-71
2022/05/11 00:17:10;;;;;;;7.03;2.65;;;22.70;42.20;;;16.86;59.85;101116.22;173976;28;970;-71
2022/05/11 00:17:16;;;;;;;6.50;2.60;;;22.70;42.20;;;16.90;59.40;101117.72;173850;28;970;-71
2022/05/11 00:17:22;;;;;;;6.78;2.70;;;22.70;42.20;;;16.93;59.59;101112.25;173876;28;974;-71
2022/05/11 00:17:27;;;;;;;6.75;2.75;;;22.70;42.30;;;16.94;59.39;101107.84;173960;28;1049;-71
2022/05/11 00:17:34;;;;;;;6.38;2.78;;;22.70;42.30;;;16.94;59.57;101113.94;173969;28;950;-71
2022/05/11 00:17:39;;;;;;;5.03;2.70;;;22.70;42.30;;;16.94;59.58;101113.94;172947;28;836;-71
2022/05/11 00:17:45;;;;;;;4.83;2.70;;;22.70;42.30;;;16.98;59.44;101112.78;173272;28;1084;-72
2022/05/11 00:17:52;;;;;;;4.53;2.80;;;22.70;42.30;;;16.94;59.49;101116.56;173321;28;1038;-72
2022/05/11 00:17:58;;;;;;;4.08;2.72;;;22.70;42.30;;;16.95;59.56;101110.38;173282;28;915;-71
2022/05/11 00:18:04;;;;;;;3.97;2.78;;;22.70;42.30;;;16.95;59.32;101112.16;173294;28;1045;-71
2022/05/11 00:18:10;;;;;;;4.15;2.80;;;22.70;42.20;;;16.89;59.37;101116.03;173200;28;1092;-71
2022/05/11 00:18:16;;;;;;;4.82;2.83;;;22.70;42.20;;;16.89;59.35;101109.91;173277;28;942;-72
2022/05/11 00:18:21;;;;;;;4.88;2.90;;;22.70;42.20;;;16.92;59.22;101115.84;173325;28;870;-72
2022/05/11 00:18:27;;;;;;;5.38;3.03;;;22.70;42.20;;;16.95;59.11;101114.81;173283;28;959;-72
2022/05/11 00:18:34;;;;;;;5.83;3.10;;;22.70;42.20;;;16.96;58.94;101106.78;173315;28;788;-72
2022/05/11 00:18:41;;;;;;;6.74;3.10;;;22.70;42.20;;;17.01;58.93;101113.56;173061;28;1101;-71
2022/05/11 00:18:47;;;;;;;6.17;3.17;;;22.60;42.20;;;16.99;59.01;101106.59;173285;28;974;-71
2022/05/11 00:18:53;;;;;;;6.32;3.13;;;22.70;42.20;;;17.01;59.05;101108.28;173197;28;1224;-72
2022/05/11 00:18:58;;;;;;;6.10;3.10;;;22.70;42.20;;;16.97;59.07;101107.66;173273;28;1030;-72
2022/05/11 00:19:04;;;;;;;5.77;3.03;;;22.70;42.20;;;16.95;59.20;101109.53;173317;28;852;-72
2022/05/11 00:19:10;;;;;;;4.85;3.00;;;22.70;42.20;;;16.93;59.47;101114.03;173309;28;859;-71
2022/05/11 00:19:19;;;;;;;4.45;2.97;;;22.60;42.20;;;16.85;59.33;101109.28;173323;28;1013;-71
2022/05/11 00:19:27;;;;;;;5.13;2.90;;;22.70;42.20;;;16.84;59.32;101103.16;173999;28;993;-72
2022/05/11 00:19:33;;;;;;;5.10;2.85;;;22.70;42.20;;;16.89;59.51;101109.91;173997;28;956;-71
2022/05/11 00:19:39;;;;;;;6.07;2.80;;;22.70;42.20;;;16.92;59.53;101107.09;173743;28;926;-71
2022/05/11 00:19:44;;;;;;;6.40;2.80;;;22.70;42.20;;;16.95;58.94;101120.94;173993;28;1033;-71
2022/05/11 00:19:50;;;;;;;5.70;2.80;;;22.70;42.20;;;16.96;58.92;101106.78;173941;28;1041;-72
2022/05/11 00:19:56;;;;;;;6.00;2.80;;;22.70;42.20;;;16.90;58.84;101106.34;173997;28;911;-71
2022/05/11 00:20:06;;;;;;;5.95;2.75;;;22.60;42.20;;;16.82;59.62;101110.34;174609;28;730;-71
2022/05/11 00:20:16;;;;;;;5.31;2.80;;;22.70;42.20;;;16.78;59.32;101102.72;175338;28;1137;-71
2022/05/11 00:20:23;;;;;;;5.72;2.83;;;22.70;42.20;;;16.73;59.26;101103.84;175349;28;1214;-72
2022/05/11 00:20:29;;;;;;;6.10;3.00;;;22.70;42.20;;;16.71;59.69;101105.75;175372;28;941;-72
2022/05/11 00:20:35;;;;;;;6.70;3.10;;;22.70;42.20;;;16.75;59.53;101109.03;175361;28;917;-72
2022/05/11 00:20:40;;;;;;;6.60;3.10;;;22.70;42.20;;;16.79;59.33;101109.66;175320;28;879;-72
2022/05/11 00:20:46;;;;;;;6.60;3.10;;;22.70;42.10;;;16.83;59.21;101108.53;175331;28;1029;-71
2022/05/11 00:20:52;;;;;;;7.10;3.20;;;22.70;42.10;;;16.81;59.71;101098.09;175374;28;922;-71
2022/05/11 00:20:58;;;;;;;7.45;3.05;;;22.70;42.10;;;16.79;59.59;101109.66;175363;28;973;-71
2022/05/11 00:21:04;;;;;;;7.57;3.00;;;22.70;42.10;;;16.72;59.59;101099.53;175338;28;1072;-72
2022/05/11 00:21:11;;;;;;;7.45;2.97;;;22.70;42.10;;;16.68;59.49;101098.06;175415;28;1112;-72
2022/05/11 00:21:17;;;;;;;7.10;2.87;;;22.70;42.10;;;16.65;59.96;101103.50;175314;28;1159;-72
2022/05/11 00:21:24;;;;;;;6.30;2.80;;;22.70;42.10;;;16.63;59.69;101105.38;175393;28;953;-72
2022/05/11 00:21:30;;;;;;;6.04;2.80;;;22.60;42.10;;;16.64;59.96;101107.09;175374;28;966;-72
2022/05/11 00:21:36;;;;;;;4.93;2.77;;;22.70;42.10;;;16.70;59.69;101101.41;175130;28;976;-72
2022/05/11 00:21:42;;;;;;;4.57;2.80;;;22.60;42.10;;;16.72;59.91;101104.81;175352;28;1151;-71
2022/05/11 00:21:48;;;;;;;4.67;2.90;;;22.60;42.10;;;16.77;59.35;101115.06;175341;28;1041;-71
2022/05/11 00:21:54;;;;;;;4.57;3.00;;;22.70;42.10;;;16.81;59.18;101108.66;175341;28;1061;-71
2022/05/11 00:21:59;;;;;;;4.25;2.90;;;22.70;42.10;;;16.85;59.51;101104.00;174786;28;922;-71
2022/05/11 00:22:05;;;;;;;5.20;3.13;;;22.70;42.10;;;16.85;59.53;101107.50;174021;28;887;-71
2022/05/11 00:22:11;;;;;;;6.20;3.20;;;22.70;42.10;;;16.82;59.49;101109.47;174043;28;1123;-71
2022/05/11 00:22:16;;;;;;;6.30;3.13;;;22.60;42.10;;;16.79;59.27;101105.25;174083;28;922;-71
2022/05/11 00:22:22;;;;;;;5.75;3.00;;;22.70;42.10;;;16.80;59.33;101104.31;174021;28;934;-71
2022/05/11 00:22:27;;;;;;;5.67;2.90;;;22.60;42.10;;;16.78;59.34;101107.97;174049;28;859;-71
2022/05/11 00:22:34;;;;;;;5.75;2.80;;;22.70;42.10;;;16.82;59.31;101104.19;174028;28;1053;-71
2022/05/11 00:22:40;;;;;;;5.28;2.63;;;22.70;42.10;;;16.85;59.35;101102.22;173799;28;811;-72
2022/05/11 00:22:46;;;;;;;5.58;2.60;;;22.70;42.10;;;16.89;59.46;101105.50;174030;28;1093;-71
2022/05/11 00:22:55;;;;;;;8.00;2.70;;;22.60;42.10;;;16.93;59.15;101101.72;174039;28;882;-71
2022/05/11 00:23:01;;;;;;;8.55;2.83;;;22.60;42.10;;;16.91;59.38;101098.34;173910;28;1346;-71
2022/05/11 00:23:07;;;;;;;8.87;2.87;;;22.70;42.10;;;16.92;59.00;101096.53;174067;28;926;-72
2022/05/11 00:23:12;;;;;;;8.48;3.03;;;22.60;42.10;;;16.86;59.21;101103.91;174015;28;1073;-72
2022/05/11 00:23:18;;;;;;;7.75;3.08;;;22.70;42.10;;;16.81;59.89;101108.66;173960;28;1096;-71
2022/05/11 00:23:25;;;;;;;6.50;3.00;;;22.70;42.20;;;16.78;59.46;101098.31;173983;28;882;-71
2022/05/11 00:23:31;;;;;;;5.50;3.00;;;22.60;42.10;;;16.79;59.55;101105.25;173998;28;1104;-71
2022/05/11 00:23:38;;;;;;;5.10;2.92;;;22.60;42.10;;;16.84;59.30;101107.59;173779;28;942;-71
2022/05/11 00:23:44;;;;;;;4.50;2.63;;;22.70;42.20;;;16.79;59.82;101104.41;174018;28;1089;-71
2022/05/11 00:23:53;;;;;;;4.00;2.77;;;22.70;42.20;;;16.71;59.57;101097.84;174023;28;1370;-71
2022/05/11 00:23:59;;;;;;;4.87;2.77;;;22.70;42.20;;;16.69;59.60;101102.38;174033;28;1151;-71
2022/05/11 00:24:05;;;;;;;5.23;3.00;;;22.70;42.10;;;16.75;59.47;101103.75;174045;28;1104;-71
2022/05/11 00:24:11;;;;;;;6.10;3.10;;;22.70;42.10;;;16.79;59.59;101099.13;174025;28;1179;-72
2022/05/11 00:24:17;;;;;;;6.63;3.17;;;22.60;42.10;;;16.83;59.62;101101.47;174048;28;899;-72
2022/05/11 00:24:22;;;;;;;7.05;3.15;;;22.70;42.10;;;16.83;59.73;101105.88;174084;28;929;-71
2022/05/11 00:24:28;;;;;;;6.80;3.10;;;22.60;42.10;;;16.86;59.69;101106.56;174027;28;994;-71
2022/05/11 00:24:34;;;;;;;6.53;2.97;;;22.60;42.20;;;16.82;59.63;101098.94;174049;28;847;-71
2022/05/11 00:24:39;;;;;;;6.13;2.90;;;22.70;42.20;;;16.82;59.75;101098.94;173810;28;930;-72
2022/05/11 00:24:45;;;;;;;5.95;2.88;;;22.60;42.20;;;16.82;59.68;101104.19;174040;28;1104;-71
2022/05/11 00:24:51;;;;;;;5.78;2.88;;;22.60;42.20;;;16.79;59.45;101099.13;173833;28;943;-71
2022/05/11 00:24:56;;;;;;;5.43;2.80;;;22.60;42.20;;;16.78;59.42;101102.72;173861;28;1049;-72
2022/05/11 00:25:06;;;;;;;5.90;2.80;;;22.70;42.20;;;16.76;59.39;101096.72;173973;28;1174;-72
2022/05/11 00:25:15;;;;;;;6.11;2.80;;;22.60;42.20;;;16.78;59.85;101100.09;173978;28;1066;-71
2022/05/11 00:25:25;;;;;;;6.53;2.80;;;22.60;42.20;;;16.84;59.60;101097.06;173978;28;977;-71
2022/05/11 00:25:31;;;;;;;7.20;2.92;;;22.60;42.20;;;16.91;59.27;101100.13;173858;28;1398;-72
2022/05/11 00:25:37;;;;;;;7.10;3.00;;;22.60;42.20;;;16.94;59.31;101103.41;173903;28;1112;-71
2022/05/11 00:25:44;;;;;;;7.13;3.00;;;22.60;42.20;;;16.94;59.15;101103.41;173958;28;1061;-71
2022/05/11 00:25:50;;;;;;;7.56;3.10;;;22.70;42.20;;;16.96;59.41;101101.53;173958;28;1013;-71
2022/05/11 00:25:56;;;;;;;6.93;3.10;;;22.60;42.20;;;16.92;59.15;101094.75;173922;28;982;-71
2022/05/11 00:26:02;;;;;;;7.83;3.13;;;22.60;42.20;;;16.88;59.14;101093.28;173958;28;942;-71
2022/05/11 00:26:08;;;;;;;7.37;3.10;;;22.60;42.20;;;16.85;59.44;101104.88;174020;28;903;-71
2022/05/11 00:26:15;;;;;;;7.47;3.20;;;22.70;42.20;;;16.88;59.56;101102.97;173889;28;722;-71
2022/05/11 00:26:21;;;;;;;6.98;3.00;;;22.60;42.20;;;16.92;59.50;101099.19;173948;28;1013;-71
2022/05/11 00:26:27;;;;;;;6.60;2.97;;;22.60;42.20;;;16.94;59.29;101098.13;173940;28;1057;-71
2022/05/11 00:26:32;;;;;;;6.37;2.90;;;22.60;42.20;;;16.95;59.04;101102.47;173966;28;852;-71
2022/05/11 00:26:38;;;;;;;6.05;2.85;;;22.60;42.20;;;16.98;59.04;101099.63;173976;28;1061;-71
2022/05/11 00:26:44;;;;;;;5.50;2.72;;;22.70;42.20;;;16.98;58.77;101101.44;173949;28;1049;-71
2022/05/11 00:26:50;;;;;;;6.10;2.70;;;22.60;42.20;;;16.91;59.13;101097.50;173863;28;923;-71
2022/05/11 00:26:55;;;;;;;6.60;2.73;;;22.60;42.20;;;16.85;59.04;101099.59;173972;28;1065;-71
2022/05/11 00:27:02;;;;;;;6.60;2.70;;;22.60;42.20;;;16.82;59.67;101093.66;173978;28;930;-71
2022/05/11 00:27:07;;;;;;;6.40;2.70;;;22.60;42.20;;;16.78;59.63;101097.44;174042;28;1005;-72
2022/05/11 00:27:13;;;;;;;6.90;2.70;;;22.60;42.20;;;16.76;59.61;101094.06;173980;28;820;-73
2022/05/11 00:27:19;;;;;;;6.43;2.72;;;22.70;42.20;;;16.73;59.38;101095.94;173973;28;1053;-72
2022/05/11 00:27:24;;;;;;;6.10;2.80;;;22.70;42.20;;;16.71;59.81;101092.59;173992;28;1033;-72
2022/05/11 00:27:31;;;;;;;6.03;2.85;;;22.60;42.20;;;16.66;59.73;101097.28;173912;28;1107;-72